Time;durP1;ratioP1;P1;durP2;ratioP2;P2;SDS_P1;SDS_P2;PMS_P1;PMS_P2;Temp;Humidity;BMP_temperature;BMP_pressure;BME280_temperature;BME280_humidity;BME280_pressure;Samples;Min_cycle;Max_cycle;Signal;HPM_P1;HPM_P2
2023/08/22 00:02:19;;;;;;;4.80;1.10;;;;;;;23.47;48.48;100323.81;5027719;28;20155;-76
2023/08/22 00:04:46;;;;;;;2.15;1.20;;;;;;;23.47;48.27;100317.59;5015231;28;20129;-76
2023/08/22 00:07:13;;;;;;;3.10;1.30;;;;;;;23.48;48.62;100320.13;5010645;28;20054;-75
2023/08/22 00:09:40;;;;;;;2.00;1.23;;;;;;;23.48;49.04;100325.50;5010544;28;20073;-76
2023/08/22 00:12:06;;;;;;;1.92;1.10;;;;;;;23.48;49.73;100320.13;5018540;28;20104;-76
2023/08/22 00:14:33;;;;;;;4.40;1.27;;;;;;;23.47;49.22;100321.13;5030252;28;20049;-76
2023/08/22 00:17:00;;;;;;;2.80;1.23;;;;;;;23.48;49.38;100314.78;5030482;28;20049;-76
2023/08/22 00:19:26;;;;;;;2.78;1.55;;;;;;;23.47;49.41;100306.88;5033360;28;20128;-76
2023/08/22 00:21:56;;;;;;;3.00;1.42;;;;;;;23.48;49.66;100295.97;5032412;28;20057;-77
2023/08/22 00:24:23;;;;;;;3.88;1.17;;;;;;;23.48;49.60;100295.97;5033795;28;20088;-76
2023/08/22 00:26:50;;;;;;;3.33;1.00;;;;;;;23.48;49.77;100293.28;5034143;28;20099;-76
2023/08/22 00:29:16;;;;;;;3.63;1.40;;;;;;;23.49;49.93;100292.25;5032408;28;20107;-76
2023/08/22 00:31:43;;;;;;;1.77;1.17;;;;;;;23.50;49.53;100291.25;5026775;28;20046;-76
2023/08/22 00:34:09;;;;;;;2.40;1.10;;;;;;;23.50;49.75;100288.56;5013094;28;20467;-75
2023/08/22 00:36:36;;;;;;;6.05;1.00;;;;;;;23.50;49.76;100285.88;5014221;28;20049;-77
2023/08/22 00:39:03;;;;;;;3.83;1.30;;;;;;;23.50;49.40;100277.81;5014069;28;20057;-75
2023/08/22 00:41:29;;;;;;;3.00;1.30;;;;;;;23.50;49.81;100272.44;5023804;28;20145;-77
2023/08/22 00:43:56;;;;;;;3.42;1.23;;;;;;;23.51;49.98;100262.56;5033656;28;20494;-76
2023/08/22 00:46:24;;;;;;;6.03;1.90;;;;;;;23.51;49.92;100266.06;5033655;28;20478;-76
2023/08/22 00:48:51;;;;;;;2.72;1.25;;;;;;;23.53;50.01;100257.84;5033761;28;20050;-77
2023/08/22 00:51:18;;;;;;;2.25;1.25;;;;;;;23.53;49.94;100253.31;5031016;28;20045;-77
2023/08/22 00:53:45;;;;;;;2.30;1.10;;;;;;;23.53;50.19;100261.38;5033445;28;20053;-76
2023/08/22 00:56:12;;;;;;;5.85;1.20;;;;;;;23.54;49.52;100262.22;5032361;28;20486;-77
2023/08/22 00:58:39;;;;;;;2.58;0.90;;;;;;;23.54;49.73;100268.44;5033218;28;20065;-76
2023/08/22 01:01:06;;;;;;;1.75;1.20;;;;;;;23.54;49.41;100259.53;5030838;28;20493;-76
2023/08/22 01:03:34;;;;;;;2.95;1.58;;;;;;;23.55;49.23;100256.69;5013939;28;20490;-76
2023/08/22 01:06:09;;;;;;;3.90;1.25;;;;;;;23.53;48.38;100252.47;5013923;28;20085;-76
2023/08/22 01:08:39;;;;;;;4.82;1.30;;;;;;;23.56;49.08;100253.00;5012503;28;20073;-77
2023/08/22 01:11:16;;;;;;;4.00;1.17;;;;;;;23.56;48.73;100241.41;5013899;28;20052;-77
2023/08/22 01:13:46;;;;;;;3.45;1.35;;;;;;;23.60;48.69;100247.28;5013917;28;20809;-77
2023/08/22 01:16:13;;;;;;;3.45;1.40;;;;;;;23.62;49.07;100239.94;5013594;28;20565;-76
2023/08/22 01:18:40;;;;;;;3.28;1.35;;;;;;;23.63;48.86;100233.53;5012130;28;20101;-76
2023/08/22 01:21:07;;;;;;;3.13;1.10;;;;;;;23.63;48.73;100234.38;5013729;28;20046;-76
2023/08/22 01:23:34;;;;;;;1.95;1.10;;;;;;;23.63;48.77;100231.69;5028102;28;20042;-77
2023/08/22 01:26:00;;;;;;;3.78;1.35;;;;;;;23.62;48.84;100235.38;5014491;28;20046;-77
2023/08/22 01:28:39;;;;;;;3.88;1.30;;;;;;;23.60;49.08;100241.94;5033131;28;20132;-76
2023/08/22 01:31:25;;;;;;;8.40;1.63;;;;;;;23.59;48.74;100234.88;5031072;28;20795;-77
2023/08/22 01:33:56;;;;;;;3.25;1.10;;;;;;;23.62;48.56;100234.56;5016749;28;20096;-77
2023/08/22 01:36:23;;;;;;;2.25;1.20;;;;;;;23.62;48.88;100235.38;5013596;28;20128;-76
2023/08/22 01:38:52;;;;;;;2.10;1.10;;;;;;;23.61;48.43;100230.16;5013004;28;20566;-77
2023/08/22 01:41:20;;;;;;;3.97;1.23;;;;;;;23.61;48.95;100224.78;5013582;28;20625;-76
2023/08/22 01:43:49;;;;;;;1.95;1.00;;;;;;;23.61;49.57;100227.47;5023409;28;20053;-77
2023/08/22 01:46:16;;;;;;;2.63;1.10;;;;;;;23.60;48.98;100223.97;5032626;28;20053;-77
2023/08/22 01:48:43;;;;;;;3.67;1.23;;;;;;;23.60;48.72;100232.03;5031561;28;20050;-77
2023/08/22 01:51:09;;;;;;;3.50;1.25;;;;;;;23.58;48.72;100228.66;5032994;28;20369;-78
2023/08/22 01:53:36;;;;;;;2.25;1.00;;;;;;;23.59;48.78;100226.81;5023928;28;20050;-78
2023/08/22 01:56:03;;;;;;;2.47;1.20;;;;;;;23.57;48.66;100216.22;5014001;28;20152;-78
2023/08/22 01:58:29;;;;;;;3.97;1.48;;;;;;;23.58;49.37;100225.13;5012762;28;20046;-78
2023/08/22 02:00:56;;;;;;;4.60;1.60;;;;;;;23.58;48.64;100225.13;5012748;28;20156;-79
2023/08/22 02:03:23;;;;;;;3.65;1.25;;;;;;;23.58;48.76;100222.44;5015417;28;20049;-78
2023/08/22 02:05:50;;;;;;;7.10;1.70;;;;;;;23.59;48.83;100216.06;5032621;28;20049;-77
2023/08/22 02:08:16;;;;;;;2.08;1.10;;;;;;;23.58;48.20;100222.44;5032368;28;20076;-79
2023/08/22 02:10:43;;;;;;;4.50;1.20;;;;;;;23.60;48.24;100228.50;5032089;28;20049;-78
2023/08/22 02:13:10;;;;;;;3.47;1.25;;;;;;;23.59;48.29;100224.13;5032214;28;20085;-78
2023/08/22 02:15:36;;;;;;;3.40;1.27;;;;;;;23.60;48.40;100231.19;5013779;28;20104;-77
2023/08/22 02:18:04;;;;;;;5.18;1.27;;;;;;;23.59;48.12;100229.50;5030857;28;20056;-78
2023/08/22 02:20:31;;;;;;;3.03;1.23;;;;;;;23.60;48.26;100210.53;5030900;28;20053;-78
2023/08/22 02:22:58;;;;;;;3.92;1.45;;;;;;;23.62;47.82;100216.56;5032083;28;20100;-78
2023/08/22 02:25:25;;;;;;;3.17;1.20;;;;;;;23.63;47.90;100218.25;5032021;28;20049;-78
2023/08/22 02:27:52;;;;;;;3.40;1.13;;;;;;;23.65;48.04;100202.81;5018088;28;20120;-78
2023/08/22 02:30:18;;;;;;;3.30;1.50;;;;;;;23.66;47.79;100225.16;5010966;28;20058;-78
2023/08/22 02:32:45;;;;;;;3.95;1.25;;;;;;;23.67;47.86;100219.59;5012336;28;20058;-78
2023/08/22 02:35:12;;;;;;;5.70;1.52;;;;;;;23.68;47.86;100224.00;5012395;28;20077;-78
2023/08/22 02:37:38;;;;;;;3.83;1.80;;;;;;;23.70;47.87;100223.84;5020664;28;20053;-78
2023/08/22 02:40:09;;;;;;;3.65;1.33;;;;;;;23.69;47.38;100227.50;5031545;28;20053;-78
2023/08/22 02:42:36;;;;;;;4.25;1.23;;;;;;;23.69;47.29;100214.06;5031297;28;20050;-78
2023/08/22 02:45:04;;;;;;;3.47;1.23;;;;;;;23.68;47.38;100207.03;5031716;28;20172;-78
2023/08/22 02:47:31;;;;;;;3.25;1.50;;;;;;;23.68;47.23;100201.66;5026539;28;20487;-78
2023/08/22 02:49:58;;;;;;;6.68;1.50;;;;;;;23.67;47.50;100206.16;5019858;28;20123;-80
2023/08/22 02:52:24;;;;;;;6.05;1.52;;;;;;;23.67;47.03;100210.72;5019273;28;20081;-79
2023/08/22 02:54:51;;;;;;;3.17;1.30;;;;;;;23.66;47.23;100204.50;5011762;28;20517;-78
2023/08/22 02:57:18;;;;;;;2.58;1.15;;;;;;;23.65;47.16;100208.19;5011798;28;20087;-78
2023/08/22 02:59:45;;;;;;;2.90;1.10;;;;;;;23.63;47.13;100220.94;5020482;28;20462;-78
2023/08/22 03:02:11;;;;;;;4.90;1.45;;;;;;;23.62;47.41;100226.50;5011749;28;20100;-78
2023/08/22 03:04:38;;;;;;;3.55;1.45;;;;;;;23.60;47.06;100210.53;5011522;28;20049;-78
2023/08/22 03:07:05;;;;;;;2.55;1.30;;;;;;;23.56;47.69;100234.19;5011546;28;20145;-79
2023/08/22 03:09:32;;;;;;;3.67;1.20;;;;;;;23.55;47.78;100224.44;5016448;28;20041;-78
2023/08/22 03:11:58;;;;;;;2.55;1.27;;;;;;;23.53;47.79;100221.09;5031445;28;20049;-77
2023/08/22 03:14:25;;;;;;;2.58;1.17;;;;;;;23.51;48.03;100225.75;5030026;28;20053;-78
2023/08/22 03:16:52;;;;;;;2.75;1.40;;;;;;;23.47;48.10;100219.03;5031246;28;20060;-78
2023/08/22 03:19:18;;;;;;;3.85;1.25;;;;;;;23.44;48.15;100222.06;5028653;28;20054;-78
2023/08/22 03:21:45;;;;;;;6.38;1.58;;;;;;;23.41;48.62;100227.75;5011307;28;20054;-78
2023/08/22 03:24:11;;;;;;;2.25;1.38;;;;;;;23.38;48.72;100225.38;5011124;28;20552;-79
2023/08/22 03:26:38;;;;;;;3.38;1.50;;;;;;;23.35;48.38;100218.47;5010153;28;20075;-78
2023/08/22 03:29:05;;;;;;;4.60;1.50;;;;;;;23.32;48.17;100224.13;5011141;28;20108;-78
2023/08/22 03:31:31;;;;;;;9.25;1.77;;;;;;;23.29;48.25;100219.91;5025677;28;20049;-78
2023/08/22 03:33:59;;;;;;;3.58;1.40;;;;;;;23.26;48.30;100222.94;5030980;28;20046;-78
2023/08/22 03:36:26;;;;;;;2.30;1.30;;;;;;;23.22;48.29;100216.22;5030793;28;20049;-79
2023/08/22 03:38:53;;;;;;;2.42;1.35;;;;;;;23.22;48.61;100213.53;5030538;28;20464;-78
2023/08/22 03:41:19;;;;;;;2.67;1.38;;;;;;;23.20;48.37;100210.13;5017866;28;20089;-78
2023/08/22 03:43:46;;;;;;;3.17;1.30;;;;;;;23.19;48.89;100205.78;5011196;28;20050;-78
2023/08/22 03:46:12;;;;;;;5.07;1.30;;;;;;;23.18;48.87;100209.47;5009884;28;20053;-78
2023/08/22 03:48:53;;;;;;;4.90;1.50;;;;;;;23.19;48.76;100203.09;5009690;28;20115;-78
2023/08/22 03:51:20;;;;;;;3.00;1.20;;;;;;;23.16;48.57;100198.88;5019480;28;20097;-78
2023/08/22 03:53:46;;;;;;;3.03;1.08;;;;;;;23.16;48.79;100204.25;5033172;28;20148;-78
2023/08/22 03:56:13;;;;;;;2.65;1.30;;;;;;;23.18;48.49;100204.09;5035042;28;20061;-78
2023/08/22 03:58:39;;;;;;;3.83;1.50;;;;;;;23.17;48.89;100197.88;5033201;28;20046;-78
2023/08/22 04:01:06;;;;;;;2.88;1.55;;;;;;;23.17;48.80;100207.75;5030539;28;20096;-78
2023/08/22 04:03:32;;;;;;;2.83;1.45;;;;;;;23.15;49.13;100204.41;5027958;28;20475;-78
2023/08/22 04:05:59;;;;;;;6.55;1.75;;;;;;;23.14;49.50;100203.56;5033254;28;20045;-78
2023/08/22 04:08:26;;;;;;;7.88;2.20;;;;;;;23.12;49.34;100199.34;5034702;28;20099;-78
2023/08/22 04:10:53;;;;;;;4.97;2.05;;;;;;;23.08;49.33;100206.03;5040698;28;20485;-78
2023/08/22 04:13:19;;;;;;;5.75;2.00;;;;;;;23.06;49.83;100200.00;5045444;28;20045;-79
2023/08/22 04:15:46;;;;;;;7.22;2.80;;;;;;;23.02;49.99;100191.41;5021449;28;20497;-78
2023/08/22 04:18:13;;;;;;;7.53;3.35;;;;;;;22.99;49.80;100183.69;5029008;28;20049;-78
2023/08/22 04:20:42;;;;;;;8.85;3.42;;;;;;;22.96;50.08;100192.03;5034112;28;20057;-78
2023/08/22 04:23:10;;;;;;;7.80;3.60;;;;;;;22.93;50.13;100192.34;5030378;28;20119;-78
2023/08/22 04:25:36;;;;;;;7.80;3.30;;;;;;;22.90;50.18;100190.81;5014483;28;20042;-78
2023/08/22 04:28:04;;;;;;;6.03;3.60;;;;;;;22.86;50.38;100192.13;5013288;28;20065;-77
2023/08/22 04:30:31;;;;;;;7.35;3.60;;;;;;;22.82;50.65;100188.94;5014281;28;20058;-77
2023/08/22 04:32:58;;;;;;;8.27;3.30;;;;;;;22.78;50.43;100191.09;5014324;28;20077;-78
2023/08/22 04:35:25;;;;;;;7.10;3.50;;;;;;;22.76;50.62;100185.03;5032168;28;20042;-78
2023/08/22 04:37:52;;;;;;;6.65;3.72;;;;;;;22.72;51.08;100186.34;5034214;28;20144;-77
2023/08/22 04:40:18;;;;;;;7.72;3.15;;;;;;;22.70;51.12;100185.69;5033998;28;20141;-77
2023/08/22 04:42:45;;;;;;;6.43;3.25;;;;;;;22.69;51.23;100186.66;5033939;28;20045;-78
2023/08/22 04:45:11;;;;;;;8.75;3.83;;;;;;;22.66;51.19;100181.63;5019654;28;20111;-78
2023/08/22 04:47:38;;;;;;;9.13;3.58;;;;;;;22.66;51.35;100187.00;5014060;28;20053;-77
2023/08/22 04:50:06;;;;;;;5.03;3.70;;;;;;;22.65;51.48;100188.81;5014098;28;20409;-77
2023/08/22 04:52:32;;;;;;;7.10;3.85;;;;;;;22.64;51.36;100187.13;5014221;28;20068;-77
2023/08/22 04:55:00;;;;;;;8.48;4.05;;;;;;;22.67;51.58;100193.19;5023264;28;20046;-78
2023/08/22 04:57:27;;;;;;;8.55;4.63;;;;;;;22.67;51.91;100191.34;5028343;28;20050;-78
2023/08/22 04:59:54;;;;;;;12.30;4.20;;;;;;;22.68;51.98;100189.53;5025393;28;20084;-77
2023/08/22 05:02:24;;;;;;;7.25;4.35;;;;;;;22.67;51.81;100188.66;5032232;28;20049;-78
2023/08/22 05:04:59;;;;;;;6.38;4.13;;;;;;;22.65;51.98;100191.50;5033459;28;20153;-77
2023/08/22 05:10:10;;;;;;;6.15;3.40;;;;;;;22.68;51.67;100198.38;5070579;22;20111;-75
2023/08/22 05:12:37;;;;;;;9.70;3.90;;;;;;;22.68;51.93;100200.25;5053297;28;20059;-76
2023/08/22 05:15:04;;;;;;;8.73;3.65;;;;;;;22.68;51.70;100193.03;5053495;28;20115;-76
2023/08/22 05:17:30;;;;;;;10.93;3.65;;;;;;;22.68;51.65;100195.72;5067440;28;20128;-76
2023/08/22 05:19:57;;;;;;;5.93;3.05;;;;;;;22.69;50.81;100196.56;5055436;28;20053;-77
2023/08/22 05:22:23;;;;;;;7.97;2.97;;;;;;;22.69;51.60;100191.19;5073271;28;20049;-76
2023/08/22 05:24:50;;;;;;;10.43;3.10;;;;;;;22.69;51.24;100191.19;5073119;28;20087;-76
2023/08/22 05:27:17;;;;;;;6.63;3.00;;;;;;;22.69;51.12;100189.34;5063035;28;20413;-77
2023/08/22 05:29:44;;;;;;;6.40;3.15;;;;;;;22.72;51.58;100188.22;5052831;28;20139;-76
2023/08/22 05:32:10;;;;;;;3.78;2.38;;;;;;;22.72;51.13;100191.72;5053160;28;20053;-76
2023/08/22 05:34:37;;;;;;;5.55;2.80;;;;;;;22.77;51.72;100192.09;5052833;28;20643;-77
2023/08/22 05:37:03;;;;;;;6.13;3.15;;;;;;;22.80;51.88;100196.28;5057871;28;20080;-77
2023/08/22 05:39:30;;;;;;;6.25;2.80;;;;;;;22.84;51.51;100207.56;5050521;28;20048;-76
2023/08/22 05:41:57;;;;;;;5.35;2.70;;;;;;;22.88;52.08;100206.25;5060622;28;20056;-76
2023/08/22 05:44:23;;;;;;;7.22;2.60;;;;;;;22.92;52.00;100207.63;5052919;28;20041;-78
2023/08/22 05:46:50;;;;;;;6.60;3.00;;;;;;;22.97;52.33;100205.31;5053127;28;20130;-76
2023/08/22 05:49:16;;;;;;;9.27;2.92;;;;;;;23.02;52.32;100213.72;5072555;28;20489;-78
2023/08/22 05:59:14;;;;;;;4.72;2.53;;;;;;;23.19;51.83;100218.34;5247889;22;20202;-76
2023/08/22 06:01:41;;;;;;;6.00;2.97;;;;;;;23.20;51.79;100225.41;5073011;28;20136;-77
2023/08/22 06:04:07;;;;;;;6.30;3.55;;;;;;;23.20;51.82;100220.03;5072845;28;20044;-76
2023/08/22 06:06:34;;;;;;;6.05;3.03;;;;;;;23.19;51.96;100229.94;5072831;28;20485;-76
2023/08/22 06:09:00;;;;;;;5.90;2.60;;;;;;;23.20;51.81;100226.25;5070988;28;20127;-77
2023/08/22 06:11:27;;;;;;;6.45;2.95;;;;;;;23.21;51.75;100225.25;5055130;28;20057;-76
2023/08/22 06:13:57;;;;;;;4.25;2.90;;;;;;;23.23;52.05;100217.88;5052871;28;20131;-75
2023/08/22 06:16:24;;;;;;;5.53;3.13;;;;;;;23.26;51.99;100216.72;5051752;28;20088;-76
2023/08/22 06:18:50;;;;;;;5.28;2.70;;;;;;;23.31;51.88;100219.75;5060195;28;20106;-76
2023/08/22 06:21:17;;;;;;;5.45;2.45;;;;;;;23.37;52.19;100221.84;5072491;28;20091;-77
2023/08/22 06:23:44;;;;;;;4.88;2.40;;;;;;;23.44;52.44;100222.06;5072563;28;20134;-77
2023/08/22 06:26:11;;;;;;;4.78;2.28;;;;;;;23.51;52.76;100224.94;5054799;28;20124;-75
2023/08/22 06:28:37;;;;;;;4.60;2.15;;;;;;;23.57;52.59;100218.91;5070312;28;20476;-76
2023/08/22 06:31:05;;;;;;;6.97;2.50;;;;;;;23.64;52.69;100211.03;5071952;28;20556;-77
2023/08/22 06:33:31;;;;;;;5.70;2.53;;;;;;;23.71;52.82;100212.09;5072259;28;20052;-76
2023/08/22 06:35:58;;;;;;;8.02;2.58;;;;;;;23.78;52.58;100209.59;5072077;28;20147;-76
2023/08/22 06:38:25;;;;;;;5.05;2.58;;;;;;;23.85;52.82;100209.78;5064845;28;20098;-76
2023/08/22 06:40:51;;;;;;;7.30;2.60;;;;;;;23.91;52.88;100209.09;5052060;28;20095;-76
2023/08/22 06:43:18;;;;;;;7.55;2.38;;;;;;;23.98;52.43;100211.97;5052151;28;20088;-77
2023/08/22 06:45:44;;;;;;;4.70;1.65;;;;;;;24.04;52.30;100211.31;5052364;28;20055;-76
2023/08/22 06:48:11;;;;;;;5.03;1.90;;;;;;;24.11;52.43;100222.31;5062004;28;20049;-76
2023/08/22 06:50:40;;;;;;;7.55;2.45;;;;;;;24.17;52.39;100213.56;5071783;28;20049;-77
2023/08/22 06:53:06;;;;;;;4.32;2.20;;;;;;;24.23;52.49;100217.44;5072216;28;20044;-77
2023/08/22 06:55:33;;;;;;;5.60;2.10;;;;;;;24.28;52.40;100218.63;5072107;28;20382;-78
2023/08/22 06:57:59;;;;;;;4.55;2.40;;;;;;;24.33;52.26;100227.03;5070062;28;20090;-77
2023/08/22 07:00:26;;;;;;;4.28;2.20;;;;;;;24.39;52.39;100225.53;5062285;28;20049;-76
2023/08/22 07:02:52;;;;;;;4.53;1.80;;;;;;;24.45;51.86;100222.16;5071277;28;20103;-78
2023/08/22 07:05:19;;;;;;;5.93;2.00;;;;;;;24.51;51.80;100234.09;5071271;28;20059;-76
2023/08/22 07:07:46;;;;;;;5.47;2.35;;;;;;;24.57;51.99;100232.59;5071202;28;20091;-76
2023/08/22 07:10:12;;;;;;;6.50;2.25;;;;;;;24.61;51.42;100231.25;5059473;28;20088;-76
2023/08/22 07:12:44;;;;;;;5.10;1.90;;;;;;;24.65;51.92;100224.53;5051119;28;20666;-77
2023/08/22 07:15:11;;;;;;;6.65;1.95;;;;;;;24.69;52.02;100228.56;5051098;28;20056;-76
2023/08/22 07:17:37;;;;;;;4.10;1.73;;;;;;;24.73;51.73;100220.97;5050801;28;20041;-77
2023/08/22 07:20:08;;;;;;;5.38;1.63;;;;;;;24.79;51.22;100216.78;5058691;28;20056;-76
2023/08/22 07:22:35;;;;;;;5.32;1.85;;;;;;;24.81;51.32;100212.91;5071085;28;20079;-76
2023/08/22 07:25:01;;;;;;;9.07;2.10;;;;;;;24.85;51.46;100213.41;5070968;28;20091;-75
2023/08/22 07:27:28;;;;;;;2.17;1.48;;;;;;;24.89;50.78;100216.63;5069901;28;20516;-76
2023/08/22 07:29:54;;;;;;;2.15;1.60;;;;;;;24.90;50.99;100221.00;5067017;28;20071;-77
2023/08/22 07:32:21;;;;;;;5.07;1.70;;;;;;;24.92;50.69;100230.59;5050705;28;20049;-77
2023/08/22 07:34:48;;;;;;;4.93;1.80;;;;;;;24.95;50.94;100234.78;5067226;28;20110;-76
2023/08/22 07:37:15;;;;;;;4.35;1.67;;;;;;;24.99;51.04;100241.50;5070875;28;20133;-76
2023/08/22 07:39:42;;;;;;;5.60;1.80;;;;;;;25.01;50.95;100239.50;5070454;28;20110;-77
2023/08/22 07:42:08;;;;;;;3.75;1.52;;;;;;;25.04;50.65;100239.16;5070729;28;20088;-76
2023/08/22 07:44:35;;;;;;;2.72;1.27;;;;;;;25.07;50.33;100238.81;5058903;28;20044;-77
2023/08/22 07:47:02;;;;;;;6.45;1.85;;;;;;;25.09;50.57;100239.47;5050688;28;20493;-76
2023/08/22 07:49:28;;;;;;;3.65;1.30;;;;;;;25.13;49.79;100248.06;5050369;28;20128;-76
2023/08/22 07:51:55;;;;;;;2.70;1.30;;;;;;;25.15;49.96;100245.19;5050579;28;20052;-76
2023/08/22 07:54:21;;;;;;;2.67;1.27;;;;;;;25.17;50.09;100251.25;5039414;28;20052;-78
2023/08/22 07:56:48;;;;;;;2.17;1.05;;;;;;;25.20;50.18;100245.53;5070642;28;20048;-76
2023/08/22 07:59:14;;;;;;;2.28;1.10;;;;;;;25.22;49.46;100254.25;5070347;28;20472;-76
2023/08/22 08:01:41;;;;;;;2.25;1.25;;;;;;;25.24;49.17;100252.25;5070531;28;20485;-76
2023/08/22 08:04:08;;;;;;;2.45;0.90;;;;;;;25.26;48.49;100250.22;5068177;28;20075;-77
2023/08/22 08:06:36;;;;;;;2.85;1.10;;;;;;;25.24;48.54;100250.38;5050528;28;20063;-77
2023/08/22 08:09:06;;;;;;;4.13;0.95;;;;;;;25.24;48.01;100253.06;5050314;28;20063;-76
2023/08/22 08:11:39;;;;;;;4.28;1.67;;;;;;;25.24;47.92;100249.56;5050435;28;20053;-77
2023/08/22 08:14:06;;;;;;;3.42;0.90;;;;;;;25.23;48.25;100245.19;5050570;28;20049;-78
2023/08/22 08:16:32;;;;;;;2.90;1.02;;;;;;;25.23;47.77;100245.19;5050499;28;20159;-77
2023/08/22 08:19:02;;;;;;;2.88;1.02;;;;;;;25.22;47.84;100251.56;5059292;28;20091;-77
2023/08/22 08:21:29;;;;;;;2.05;0.90;;;;;;;25.24;47.54;100247.69;5057381;28;20088;-77
2023/08/22 08:23:55;;;;;;;2.05;1.20;;;;;;;25.26;47.99;100246.69;5066235;28;20106;-75
2023/08/22 08:26:22;;;;;;;3.72;1.30;;;;;;;25.29;47.78;100251.72;5070276;28;20052;-76
2023/08/22 08:28:48;;;;;;;5.47;1.52;;;;;;;25.33;47.57;100256.59;5070003;28;20131;-78
2023/08/22 08:31:15;;;;;;;2.50;1.30;;;;;;;25.37;47.86;100259.78;5070242;28;20412;-77
2023/08/22 08:33:41;;;;;;;6.20;1.50;;;;;;;25.43;48.37;100248.31;5070241;28;20481;-76
2023/08/22 08:36:08;;;;;;;1.95;1.23;;;;;;;25.52;47.97;100257.22;5068210;28;20402;-77
2023/08/22 08:38:34;;;;;;;2.28;1.27;;;;;;;25.59;48.11;100263.63;5070256;28;20056;-77
2023/08/22 08:41:02;;;;;;;3.30;1.50;;;;;;;25.68;47.08;100267.13;5073928;28;20084;-76
2023/08/22 08:43:31;;;;;;;2.67;1.13;;;;;;;25.76;47.35;100258.16;5074129;28;20106;-77
2023/08/22 08:45:58;;;;;;;5.50;2.10;;;;;;;25.83;47.58;100263.69;5048086;28;20488;-76
2023/08/22 08:48:25;;;;;;;5.00;1.50;;;;;;;25.88;47.24;100270.25;5053961;28;20502;-76
2023/08/22 08:50:52;;;;;;;5.28;1.55;;;;;;;25.94;47.72;100265.16;5053673;28;20103;-77
2023/08/22 08:53:19;;;;;;;4.85;1.95;;;;;;;25.98;47.68;100261.09;5053746;28;20482;-76
2023/08/22 08:55:46;;;;;;;4.68;1.85;;;;;;;26.05;47.59;100258.53;5056739;28;20048;-77
2023/08/22 08:58:13;;;;;;;4.75;1.98;;;;;;;26.13;48.32;100269.28;5073744;28;20098;-76
2023/08/22 09:00:40;;;;;;;4.07;1.90;;;;;;;26.22;48.34;100268.22;5055056;28;20110;-77
2023/08/22 09:03:06;;;;;;;4.00;2.30;;;;;;;26.32;47.89;100272.56;5053637;28;20084;-77
2023/08/22 09:05:33;;;;;;;1.98;1.70;;;;;;;26.39;48.07;100255.47;5053520;28;20049;-76
2023/08/22 09:08:19;;;;;;;2.20;1.63;;;;;;;26.46;48.04;100268.25;5053382;28;20063;-76
2023/08/22 09:10:51;;;;;;;4.13;1.73;;;;;;;26.58;47.58;100265.97;5069090;28;20076;-77
2023/08/22 09:17:20;;;;;;;2.13;1.55;;;;;;;26.69;46.54;100264.69;5050992;28;20051;-77
2023/08/22 09:19:46;;;;;;;3.17;1.80;;;;;;;26.77;46.29;100267.34;5046359;28;20049;-78
2023/08/22 09:22:14;;;;;;;4.20;1.75;;;;;;;26.76;46.21;100269.19;5049457;28;20461;-76
2023/08/22 09:24:52;;;;;;;4.38;2.10;;;;;;;26.73;46.42;100258.75;5053191;28;20049;-75
2023/08/22 09:27:25;;;;;;;5.85;2.10;;;;;;;26.77;47.09;100276.25;5035395;28;20056;-77
2023/08/22 09:37:33;;;;;;;3.17;1.67;;;;;;;26.99;46.45;100278.31;5053585;28;20103;-76
2023/08/22 09:40:03;;;;;;;3.85;1.50;;;;;;;27.09;46.47;100280.75;5053452;28;20045;-77
2023/08/22 09:42:30;;;;;;;2.67;1.48;;;;;;;27.18;45.89;100266.13;5055966;28;20854;-76
2023/08/22 09:44:57;;;;;;;4.72;1.90;;;;;;;27.25;45.81;100271.63;5056313;28;20053;-76
2023/08/22 09:47:30;;;;;;;2.10;1.40;;;;;;;27.31;45.44;100268.19;5073387;28;20084;-76
2023/08/22 09:50:05;;;;;;;5.32;1.52;;;;;;;27.39;45.20;100268.09;5072860;28;20052;-76
2023/08/22 09:52:33;;;;;;;3.70;1.77;;;;;;;27.48;45.46;100265.31;5042808;28;20139;-77
2023/08/22 09:55:00;;;;;;;4.78;1.80;;;;;;;27.56;45.22;100262.50;5053322;28;20075;-77
2023/08/22 09:57:27;;;;;;;2.55;1.50;;;;;;;27.61;45.17;100265.50;5052978;28;20406;-77
2023/08/22 09:59:55;;;;;;;2.10;1.05;;;;;;;27.67;45.62;100274.75;5035073;28;20095;-76
2023/08/22 10:02:22;;;;;;;1.95;1.20;;;;;;;27.71;44.76;100276.03;5060814;28;20060;-76
2023/08/22 10:04:49;;;;;;;5.22;1.23;;;;;;;27.77;44.48;100274.47;5055421;28;20045;-77
2023/08/22 10:07:16;;;;;;;4.18;1.25;;;;;;;27.83;45.13;100269.13;5072998;28;20048;-76
2023/08/22 10:09:43;;;;;;;3.65;1.52;;;;;;;27.92;44.68;100269.03;5072748;28;20049;-77
2023/08/22 10:12:13;;;;;;;3.17;1.60;;;;;;;28.01;43.95;100267.03;5051222;28;20528;-76
2023/08/22 10:14:59;;;;;;;3.42;1.30;;;;;;;28.07;43.89;100272.50;5052866;28;20053;-76
2023/08/22 10:17:27;;;;;;;2.92;1.42;;;;;;;28.22;44.42;100261.66;5035270;28;20061;-77
2023/08/22 10:20:04;;;;;;;2.00;1.20;;;;;;;28.29;44.12;100260.94;5052695;28;20103;-76
2023/08/22 10:22:35;;;;;;;3.72;1.67;;;;;;;28.39;43.50;100266.00;5056115;28;20536;-77
2023/08/22 10:25:04;;;;;;;5.07;1.58;;;;;;;28.45;43.78;100279.59;5054693;28;20084;-77
2023/08/22 10:27:31;;;;;;;4.07;1.48;;;;;;;28.49;43.22;100269.25;5072633;28;20467;-76
2023/08/22 10:30:12;;;;;;;3.88;1.55;;;;;;;28.44;42.99;100264.38;5072259;28;20048;-76
2023/08/22 10:32:40;;;;;;;5.70;1.10;;;;;;;28.48;43.03;100267.56;5070260;28;20481;-76
2023/08/22 10:35:10;;;;;;;3.83;1.20;;;;;;;28.45;42.28;100266.06;5052448;28;20084;-76
2023/08/22 10:37:47;;;;;;;2.90;1.27;;;;;;;28.43;42.90;100265.44;5051601;28;20057;-78
2023/08/22 10:40:32;;;;;;;3.17;1.25;;;;;;;28.45;43.71;100259.81;5051694;28;20045;-76
2023/08/22 10:43:10;;;;;;;2.65;1.27;;;;;;;28.49;43.98;100264.63;5053072;28;20114;-76
2023/08/22 10:45:39;;;;;;;8.27;1.33;;;;;;;28.61;44.29;100269.56;5071523;28;20479;-76
2023/08/22 10:48:11;;;;;;;4.18;1.40;;;;;;;28.69;44.23;100268.56;5071315;28;20048;-76
2023/08/22 10:50:42;;;;;;;3.35;1.55;;;;;;;28.84;44.11;100272.03;5071269;28;20067;-77
2023/08/22 10:53:18;;;;;;;5.55;2.03;;;;;;;28.95;43.76;100259.84;5053487;28;20052;-76
2023/08/22 10:55:45;;;;;;;2.92;1.50;;;;;;;29.14;43.78;100268.31;5051370;28;20051;-76
2023/08/22 10:58:38;;;;;;;4.75;1.73;;;;;;;29.27;43.19;100262.16;5033521;28;20092;-78
2023/08/22 11:01:07;;;;;;;3.72;1.70;;;;;;;29.52;43.22;100264.41;5051519;28;20114;-77
2023/08/22 11:03:34;;;;;;;4.55;1.98;;;;;;;29.75;42.62;100255.13;5051626;28;20071;-76
2023/08/22 11:06:01;;;;;;;4.55;1.80;;;;;;;29.96;42.91;100270.44;5067126;28;20132;-76
2023/08/22 11:08:27;;;;;;;2.42;1.90;;;;;;;30.12;41.88;100269.25;5051146;28;20114;-77
2023/08/22 11:10:57;;;;;;;4.25;1.80;;;;;;;30.30;41.86;100282.25;5051913;28;20048;-77
2023/08/22 11:13:35;;;;;;;3.88;2.22;;;;;;;30.53;41.75;100263.88;5049610;28;20078;-77
2023/08/22 11:16:02;;;;;;;4.85;2.20;;;;;;;30.87;42.16;100261.22;5052113;28;20041;-77
2023/08/22 11:18:29;;;;;;;2.78;1.90;;;;;;;31.20;41.51;100269.31;5055871;28;20079;-77
2023/08/22 11:20:56;;;;;;;3.35;1.90;;;;;;;31.49;40.48;100266.34;5068744;28;20041;-76
2023/08/22 11:23:23;;;;;;;8.07;2.35;;;;;;;31.69;39.01;100258.09;5044001;28;20084;-76
2023/08/22 11:25:50;;;;;;;3.78;2.10;;;;;;;31.81;38.96;100260.97;5033064;28;20106;-76
2023/08/22 11:28:16;;;;;;;2.88;1.85;;;;;;;31.88;38.71;100258.25;5050747;28;20072;-76
2023/08/22 11:30:43;;;;;;;3.38;2.33;;;;;;;31.90;38.03;100269.78;5050761;28;20107;-78
2023/08/22 11:33:19;;;;;;;5.18;2.20;;;;;;;31.80;37.89;100272.94;5054304;28;20055;-77
2023/08/22 11:35:46;;;;;;;6.22;2.45;;;;;;;31.71;37.82;100264.19;5069122;28;20075;-77
2023/08/22 11:38:12;;;;;;;7.75;2.83;;;;;;;31.54;37.81;100271.97;5064051;28;20048;-77
2023/08/22 11:40:42;;;;;;;6.45;2.15;;;;;;;31.31;38.26;100262.44;5050712;28;20044;-76
2023/08/22 11:43:10;;;;;;;4.95;2.17;;;;;;;31.14;37.46;100263.91;5050610;28;20547;-75
2023/08/22 11:45:46;;;;;;;6.40;2.33;;;;;;;30.87;37.96;100255.78;5050656;28;20468;-77
2023/08/22 11:48:18;;;;;;;4.90;2.28;;;;;;;30.72;38.63;100261.41;5050537;28;20140;-75
2023/08/22 11:50:45;;;;;;;6.53;2.08;;;;;;;30.55;38.72;100265.38;5033740;28;20115;-77